Time;durP1;ratioP1;P1;durP2;ratioP2;P2;SDS_P1;SDS_P2;PMS_P1;PMS_P2;Temp;Humidity;BMP_temperature;BMP_pressure;BME280_temperature;BME280_humidity;BME280_pressure;Samples;Min_cycle;Max_cycle;Signal;HPM_P1;HPM_P2
2024/01/13 00:02:22;;;;;;;72.15;32.13;;;-0.20;97.30;;;;;;5105768;28;20016;-69
2024/01/13 00:04:48;;;;;;;67.95;32.03;;;-0.20;97.40;;;;;;5105957;28;20035;-69
2024/01/13 00:07:13;;;;;;;71.47;32.92;;;-0.30;97.40;;;;;;5105217;28;20050;-70
2024/01/13 00:09:39;;;;;;;75.25;35.80;;;-0.30;97.40;;;;;;5107502;28;20032;-69
2024/01/13 00:12:05;;;;;;;77.25;34.08;;;-0.30;97.50;;;;;;5105899;28;20086;-69
2024/01/13 00:14:31;;;;;;;68.63;34.08;;;-0.30;97.50;;;;;;5104878;28;20036;-72
2024/01/13 00:16:57;;;;;;;71.97;33.17;;;-0.30;97.60;;;;;;5104701;28;20102;-69
2024/01/13 00:19:23;;;;;;;71.57;33.15;;;-0.40;97.70;;;;;;5100802;28;20024;-68
2024/01/13 00:21:49;;;;;;;77.07;34.63;;;-0.40;97.90;;;;;;5103706;28;20864;-69
2024/01/13 00:24:14;;;;;;;71.80;35.30;;;-0.40;97.90;;;;;;5112870;28;20059;-69
2024/01/13 00:26:40;;;;;;;71.40;34.03;;;-0.40;98.00;;;;;;5098830;28;20021;-69
2024/01/13 00:29:06;;;;;;;68.85;31.92;;;-0.40;98.00;;;;;;5103089;28;20353;-69
2024/01/13 00:31:32;;;;;;;75.65;34.50;;;-0.40;98.00;;;;;;5104296;28;20051;-75
2024/01/13 00:33:57;;;;;;;72.80;32.72;;;-0.40;98.00;;;;;;5114486;28;20106;-70
2024/01/13 00:36:23;;;;;;;69.72;32.13;;;-0.40;98.00;;;;;;5104086;28;20120;-69
2024/01/13 00:38:48;;;;;;;70.78;34.90;;;-0.40;97.90;;;;;;5102694;28;20039;-69
2024/01/13 00:41:14;;;;;;;73.78;34.80;;;-0.40;97.70;;;;;;5105987;28;20103;-70
2024/01/13 00:43:40;;;;;;;68.85;32.58;;;-0.40;97.80;;;;;;5098947;28;20031;-70
2024/01/13 00:46:05;;;;;;;70.45;33.95;;;-0.50;97.70;;;;;;5110040;28;20038;-69
2024/01/13 00:48:31;;;;;;;67.38;32.00;;;-0.50;97.70;;;;;;5099721;28;20055;-75
2024/01/13 00:50:57;;;;;;;70.85;32.85;;;-0.50;97.70;;;;;;5102175;28;20451;-70
2024/01/13 00:53:23;;;;;;;71.97;33.28;;;-0.50;97.80;;;;;;5104840;28;20020;-70
2024/01/13 00:55:48;;;;;;;70.90;34.30;;;-0.50;97.70;;;;;;5102415;28;20028;-70
2024/01/13 00:58:16;;;;;;;70.72;32.65;;;-0.50;97.70;;;;;;5103014;28;20038;-70
2024/01/13 01:00:41;;;;;;;70.82;33.58;;;-0.60;97.60;;;;;;5101161;28;20449;-69
2024/01/13 01:03:07;;;;;;;69.85;34.05;;;-0.60;97.60;;;;;;5103525;28;20024;-69
2024/01/13 01:05:32;;;;;;;71.50;33.13;;;-0.60;97.70;;;;;;5104647;28;20036;-73
2024/01/13 01:07:58;;;;;;;72.82;33.90;;;-0.70;97.80;;;;;;5102247;28;20067;-70
2024/01/13 01:10:24;;;;;;;75.75;34.90;;;-0.70;97.90;;;;;;5103843;28;20384;-69
2024/01/13 01:12:49;;;;;;;67.90;33.88;;;-0.70;98.10;;;;;;5100896;28;20016;-70
2024/01/13 01:15:15;;;;;;;77.10;35.25;;;-0.70;98.20;;;;;;5104169;28;20397;-71
2024/01/13 01:17:40;;;;;;;75.75;33.47;;;-0.70;98.30;;;;;;5098344;28;20028;-70
2024/01/13 01:20:06;;;;;;;70.68;32.67;;;-0.70;98.30;;;;;;5104680;28;20020;-70
2024/01/13 01:22:32;;;;;;;72.45;33.65;;;-0.80;98.30;;;;;;5101643;28;20030;-70
2024/01/13 01:24:58;;;;;;;70.93;33.38;;;-0.80;98.40;;;;;;5098486;28;20032;-70
2024/01/13 01:27:23;;;;;;;68.03;30.45;;;-0.80;98.50;;;;;;5104171;28;20020;-70
2024/01/13 01:29:49;;;;;;;66.05;29.85;;;-0.80;98.50;;;;;;5102278;28;20072;-69
2024/01/13 01:32:15;;;;;;;68.78;31.27;;;-0.80;98.50;;;;;;5102135;28;20020;-70
2024/01/13 01:34:40;;;;;;;62.78;29.13;;;-0.90;98.50;;;;;;5100046;28;20024;-70
2024/01/13 01:37:06;;;;;;;71.97;30.95;;;-0.90;98.50;;;;;;5101860;28;20030;-69
2024/01/13 01:39:31;;;;;;;64.45;29.65;;;-0.90;98.50;;;;;;5101529;28;20051;-69
2024/01/13 01:41:57;;;;;;;55.10;26.70;;;-1.00;98.70;;;;;;5098075;28;20054;-71
2024/01/13 01:44:23;;;;;;;62.70;28.67;;;-1.00;98.90;;;;;;5100811;28;20024;-70
2024/01/13 01:46:49;;;;;;;59.95;28.15;;;-1.00;99.00;;;;;;5102640;28;20328;-70
2024/01/13 01:49:17;;;;;;;57.58;27.67;;;-1.00;99.00;;;;;;5103139;28;20433;-69
2024/01/13 01:51:44;;;;;;;58.08;26.02;;;-1.00;99.10;;;;;;5095140;28;20072;-69
2024/01/13 01:54:10;;;;;;;62.53;27.00;;;-1.00;99.20;;;;;;5102500;28;20047;-70
2024/01/13 01:56:37;;;;;;;62.03;26.83;;;-1.00;99.20;;;;;;5103757;28;20062;-70
2024/01/13 01:59:03;;;;;;;58.08;28.15;;;-1.00;99.30;;;;;;5102999;28;20040;-69
2024/01/13 02:01:30;;;;;;;62.92;27.58;;;-1.00;99.10;;;;;;5102796;28;20183;-70
2024/01/13 02:03:58;;;;;;;60.15;26.83;;;-1.00;99.10;;;;;;5101566;28;20465;-70
2024/01/13 02:06:25;;;;;;;59.75;28.13;;;-1.00;99.30;;;;;;5102166;28;20016;-70
2024/01/13 02:08:51;;;;;;;58.92;26.52;;;-0.90;99.20;;;;;;5100299;28;20039;-70
2024/01/13 02:11:17;;;;;;;56.63;25.33;;;-1.00;99.20;;;;;;5102530;28;20024;-70
2024/01/13 02:13:45;;;;;;;62.60;28.02;;;-0.90;99.30;;;;;;5099639;28;20028;-70
2024/01/13 02:16:12;;;;;;;60.42;28.60;;;-0.90;99.30;;;;;;5102305;28;20028;-69
2024/01/13 02:18:38;;;;;;;62.60;28.80;;;-0.90;99.30;;;;;;5102733;28;20406;-69
2024/01/13 02:21:04;;;;;;;60.58;27.35;;;-0.90;99.30;;;;;;5102287;28;20483;-68
2024/01/13 02:23:29;;;;;;;56.83;27.15;;;-0.90;99.20;;;;;;5098518;28;20027;-69
2024/01/13 02:25:56;;;;;;;58.60;28.42;;;-0.90;99.20;;;;;;5100901;28;20035;-69
2024/01/13 02:28:21;;;;;;;68.88;27.10;;;-0.90;99.10;;;;;;5103515;28;20091;-69
2024/01/13 02:30:47;;;;;;;59.15;26.77;;;-0.90;99.00;;;;;;5096530;28;20099;-70
2024/01/13 02:33:12;;;;;;;56.17;27.30;;;-0.90;98.90;;;;;;5101227;28;20073;-69
2024/01/13 02:35:38;;;;;;;64.43;28.67;;;-1.00;98.70;;;;;;5100925;28;20032;-69
2024/01/13 02:38:04;;;;;;;60.42;28.25;;;-1.00;98.70;;;;;;5099352;28;20426;-69
2024/01/13 02:40:29;;;;;;;58.45;27.30;;;-1.00;98.80;;;;;;5103055;28;20024;-69
2024/01/13 02:42:55;;;;;;;60.20;27.48;;;-1.10;98.90;;;;;;5101099;28;20069;-69
2024/01/13 02:45:21;;;;;;;60.72;27.80;;;-1.10;98.90;;;;;;5101588;28;20102;-70
2024/01/13 02:48:00;;;;;;;59.60;27.50;;;-1.10;99.10;;;;;;5102207;28;20073;-70
2024/01/13 02:50:25;;;;;;;65.13;29.05;;;-1.10;99.10;;;;;;5098876;28;20094;-69
2024/01/13 02:52:51;;;;;;;65.50;28.20;;;-1.10;99.20;;;;;;5101977;28;20028;-69
2024/01/13 02:55:17;;;;;;;65.72;28.08;;;-1.20;99.30;;;;;;5099421;28;20478;-69
2024/01/13 02:57:43;;;;;;;67.78;28.88;;;-1.20;99.40;;;;;;5101952;28;20436;-73
2024/01/13 03:00:09;;;;;;;67.03;28.58;;;-1.20;99.50;;;;;;5101694;28;20530;-70
2024/01/13 03:02:35;;;;;;;66.72;28.83;;;-1.20;99.50;;;;;;5099380;28;20051;-69
2024/01/13 03:05:01;;;;;;;61.38;27.80;;;-1.20;99.60;;;;;;5099536;28;20024;-70
2024/01/13 03:07:27;;;;;;;62.75;28.50;;;-1.20;99.60;;;;;;5099979;28;20139;-70
2024/01/13 03:09:52;;;;;;;65.68;28.52;;;-1.20;99.80;;;;;;5101673;28;20024;-70
2024/01/13 03:12:18;;;;;;;66.43;30.00;;;-1.20;99.80;;;;;;5100436;28;20510;-70
2024/01/13 03:14:45;;;;;;;66.43;28.55;;;-1.20;99.80;;;;;;5101957;28;20536;-70
2024/01/13 03:17:11;;;;;;;69.85;30.13;;;-1.20;99.90;;;;;;5100852;28;20055;-68
2024/01/13 03:19:36;;;;;;;78.72;32.33;;;-1.30;99.90;;;;;;5099919;28;20043;-70
2024/01/13 03:22:02;;;;;;;73.53;30.92;;;-1.30;99.90;;;;;;5100155;28;20031;-69
2024/01/13 03:24:28;;;;;;;78.28;33.30;;;-1.30;99.90;;;;;;5100138;28;20113;-69
2024/01/13 03:26:53;;;;;;;77.88;31.73;;;-1.30;99.90;;;;;;5099592;28;20099;-70
2024/01/13 03:29:19;;;;;;;74.55;32.70;;;-1.30;99.90;;;;;;5100545;28;20130;-71
2024/01/13 03:31:44;;;;;;;72.60;31.65;;;-1.30;99.90;;;;;;5099781;28;20048;-69
2024/01/13 03:34:10;;;;;;;81.90;32.70;;;-1.30;99.90;;;;;;5097626;28;20035;-69
2024/01/13 03:36:36;;;;;;;73.05;30.60;;;-1.30;99.90;;;;;;5099944;28;20107;-68
2024/01/13 03:39:02;;;;;;;74.65;33.13;;;-1.30;99.90;;;;;;5100845;28;20031;-69
2024/01/13 03:41:28;;;;;;;75.38;32.13;;;-1.30;99.90;;;;;;5100240;28;20020;-69
2024/01/13 03:43:57;;;;;;;79.45;32.05;;;-1.30;99.90;;;;;;5099879;28;20023;-70
2024/01/13 03:46:23;;;;;;;76.05;33.33;;;-1.30;99.90;;;;;;5101665;28;20019;-69
2024/01/13 03:48:48;;;;;;;78.68;32.95;;;-1.30;99.90;;;;;;5101150;28;20030;-75
2024/01/13 03:51:16;;;;;;;82.47;34.85;;;-1.30;99.90;;;;;;5097411;28;20100;-68
2024/01/13 03:53:42;;;;;;;81.72;33.58;;;-1.30;99.90;;;;;;5097559;28;20027;-70
2024/01/13 03:56:08;;;;;;;78.85;33.53;;;-1.30;99.90;;;;;;5099001;28;20373;-69
2024/01/13 03:58:35;;;;;;;80.93;33.35;;;-1.30;99.90;;;;;;5104359;28;20021;-69
2024/01/13 04:01:01;;;;;;;80.35;34.53;;;-1.30;99.90;;;;;;5103033;28;20016;-69
2024/01/13 04:03:27;;;;;;;77.22;34.10;;;-1.40;99.90;;;;;;5106737;28;20020;-69
2024/01/13 04:05:53;;;;;;;84.07;34.17;;;-1.40;99.90;;;;;;5104098;28;20537;-69
2024/01/13 04:08:19;;;;;;;81.20;33.38;;;-1.40;99.90;;;;;;5104762;28;20020;-69
2024/01/13 04:10:44;;;;;;;80.00;33.67;;;-1.30;99.90;;;;;;5105930;28;20027;-69
2024/01/13 04:13:11;;;;;;;85.78;34.55;;;-1.30;99.90;;;;;;5102061;28;20239;-69
2024/01/13 04:15:37;;;;;;;81.15;33.78;;;-1.30;99.90;;;;;;5103917;28;20027;-69
2024/01/13 04:18:03;;;;;;;78.60;34.80;;;-1.30;99.90;;;;;;5102952;28;20051;-70
2024/01/13 04:20:28;;;;;;;79.95;33.58;;;-1.30;99.90;;;;;;5102393;28;20055;-69
2024/01/13 04:22:54;;;;;;;83.15;33.10;;;-1.20;99.90;;;;;;5103668;28;20024;-70
2024/01/13 04:25:20;;;;;;;73.75;32.92;;;-1.20;99.90;;;;;;5102160;28;20497;-69
2024/01/13 04:27:45;;;;;;;75.95;32.55;;;-1.20;99.90;;;;;;5102381;28;20457;-70
2024/01/13 04:30:11;;;;;;;77.22;33.25;;;-1.20;99.90;;;;;;5104084;28;20054;-70
2024/01/13 04:32:38;;;;;;;74.28;33.55;;;-1.30;99.90;;;;;;5103324;28;20032;-69
2024/01/13 04:35:04;;;;;;;79.60;33.80;;;-1.30;99.90;;;;;;5102312;28;20023;-69
2024/01/13 04:37:30;;;;;;;69.35;31.15;;;-1.30;99.90;;;;;;5103335;28;20042;-69
2024/01/13 04:39:55;;;;;;;77.80;33.30;;;-1.30;99.90;;;;;;5101589;28;20023;-69
2024/01/13 04:42:21;;;;;;;78.93;33.08;;;-1.30;99.90;;;;;;5101717;28;20020;-69
2024/01/13 04:44:47;;;;;;;73.72;32.22;;;-1.30;99.90;;;;;;5100200;28;20412;-68
2024/01/13 04:47:12;;;;;;;77.18;33.25;;;-1.30;99.90;;;;;;5098779;28;20012;-69
2024/01/13 04:49:38;;;;;;;79.63;33.97;;;-1.30;99.90;;;;;;5110667;28;20100;-68
2024/01/13 04:52:04;;;;;;;76.97;32.75;;;-1.30;99.90;;;;;;5113530;28;20030;-68
2024/01/13 04:54:29;;;;;;;78.38;32.92;;;-1.20;99.90;;;;;;5112642;28;20473;-68
2024/01/13 04:56:55;;;;;;;72.03;33.45;;;-1.20;99.90;;;;;;5112451;28;20359;-74
2024/01/13 04:59:20;;;;;;;74.55;33.22;;;-1.20;99.90;;;;;;5113882;28;20145;-69
2024/01/13 05:01:46;;;;;;;73.22;33.45;;;-1.20;99.90;;;;;;5095588;28;20063;-70
2024/01/13 05:04:12;;;;;;;73.10;31.90;;;-1.20;99.90;;;;;;5092729;28;20083;-71
2024/01/13 05:06:37;;;;;;;71.82;31.27;;;-1.20;99.90;;;;;;5093091;28;20024;-69
2024/01/13 05:09:04;;;;;;;67.18;29.92;;;-1.20;99.90;;;;;;5093125;28;20047;-69
2024/01/13 05:11:30;;;;;;;76.65;32.70;;;-1.20;99.90;;;;;;5093660;28;20063;-69
2024/01/13 05:13:56;;;;;;;68.63;31.65;;;-1.20;99.90;;;;;;5091226;28;20073;-75
2024/01/13 05:16:21;;;;;;;67.53;30.40;;;-1.20;99.90;;;;;;5092236;28;20020;-69
2024/01/13 05:18:47;;;;;;;70.25;30.58;;;-1.20;99.90;;;;;;5092625;28;20445;-69
2024/01/13 05:21:12;;;;;;;61.05;29.27;;;-1.20;99.90;;;;;;5092216;28;20024;-69
2024/01/13 05:23:38;;;;;;;61.25;28.13;;;-1.20;99.90;;;;;;5093193;28;20456;-69
2024/01/13 05:26:04;;;;;;;61.03;27.92;;;-1.20;99.90;;;;;;5092650;28;20040;-69
2024/01/13 05:28:29;;;;;;;60.22;27.73;;;-1.20;99.90;;;;;;5093207;28;20071;-69
2024/01/13 05:30:55;;;;;;;59.97;26.67;;;-1.20;99.90;;;;;;5093580;28;20020;-69
2024/01/13 05:33:21;;;;;;;59.45;26.65;;;-1.20;99.90;;;;;;5092701;28;20028;-68
2024/01/13 05:35:46;;;;;;;61.75;27.25;;;-1.20;99.90;;;;;;5093101;28;20024;-69
2024/01/13 05:38:12;;;;;;;59.85;26.38;;;-1.20;99.90;;;;;;5092595;28;20065;-69
2024/01/13 05:40:43;;;;;;;59.55;27.00;;;-1.20;99.90;;;;;;5093058;28;20024;-70
2024/01/13 05:43:09;;;;;;;58.50;26.05;;;-1.20;99.90;;;;;;5091494;28;20032;-70
2024/01/13 05:45:35;;;;;;;54.58;25.17;;;-1.20;99.90;;;;;;5092426;28;20081;-69
2024/01/13 05:48:01;;;;;;;59.67;26.13;;;-1.20;99.90;;;;;;5092569;28;20376;-70
2024/01/13 05:50:27;;;;;;;48.83;23.27;;;-1.20;99.90;;;;;;5092453;28;20443;-69
2024/01/13 05:52:53;;;;;;;53.80;24.90;;;-1.20;99.90;;;;;;5092547;28;20069;-69
2024/01/13 05:55:18;;;;;;;54.22;24.17;;;-1.20;99.90;;;;;;5092321;28;20607;-69
2024/01/13 05:57:44;;;;;;;52.50;23.88;;;-1.20;99.90;;;;;;5099868;28;20137;-69
2024/01/13 06:00:10;;;;;;;50.50;24.10;;;-1.20;99.90;;;;;;5112353;28;20488;-69
2024/01/13 06:02:35;;;;;;;49.92;22.15;;;-1.20;99.90;;;;;;5112954;28;20031;-70
2024/01/13 06:05:01;;;;;;;46.05;21.23;;;-1.20;99.90;;;;;;5112517;28;20031;-70
2024/01/13 06:07:27;;;;;;;47.47;22.23;;;-1.10;99.90;;;;;;5113076;28;20024;-69
2024/01/13 06:09:54;;;;;;;45.13;22.02;;;-1.20;99.90;;;;;;5103636;28;20146;-71
2024/01/13 06:12:20;;;;;;;50.08;23.45;;;-1.20;99.90;;;;;;5091626;28;20257;-70
2024/01/13 06:14:47;;;;;;;47.13;23.10;;;-1.10;99.90;;;;;;5092175;28;20030;-69
2024/01/13 06:17:12;;;;;;;48.22;22.90;;;-1.20;99.90;;;;;;5091603;28;20020;-69
2024/01/13 06:19:38;;;;;;;53.53;24.15;;;-1.10;99.90;;;;;;5091824;28;20424;-70
2024/01/13 06:22:04;;;;;;;50.45;22.20;;;-1.10;99.90;;;;;;5090999;28;20059;-69
2024/01/13 06:24:29;;;;;;;51.28;23.95;;;-1.10;99.90;;;;;;5091452;28;20108;-69
2024/01/13 06:26:55;;;;;;;45.08;21.45;;;-1.20;99.80;;;;;;5091873;28;20031;-71
2024/01/13 06:29:21;;;;;;;47.75;21.98;;;-1.20;99.80;;;;;;5091454;28;20315;-70
2024/01/13 06:31:46;;;;;;;51.72;22.00;;;-1.20;99.90;;;;;;5091231;28;20020;-71
2024/01/13 06:34:12;;;;;;;42.92;21.20;;;-1.20;99.90;;;;;;5091035;28;20393;-71
2024/01/13 06:36:38;;;;;;;44.38;21.25;;;-1.20;99.90;;;;;;5091321;28;20448;-70
2024/01/13 06:39:04;;;;;;;46.58;20.85;;;-1.20;99.90;;;;;;5091258;28;20027;-70
2024/01/13 06:41:30;;;;;;;42.83;20.85;;;-1.20;99.90;;;;;;5088787;28;20016;-70
2024/01/13 06:43:56;;;;;;;49.63;22.67;;;-1.20;99.90;;;;;;5091266;28;20031;-70
2024/01/13 06:46:22;;;;;;;43.55;20.55;;;-1.20;99.90;;;;;;5091408;28;20211;-69
2024/01/13 06:48:47;;;;;;;43.92;20.10;;;-1.20;99.90;;;;;;5091611;28;20020;-69
2024/01/13 06:51:14;;;;;;;45.22;20.60;;;-1.20;99.90;;;;;;5091382;28;20028;-68
2024/01/13 06:53:39;;;;;;;44.17;19.70;;;-1.20;99.90;;;;;;5091783;28;20032;-68
2024/01/13 06:56:05;;;;;;;45.35;20.73;;;-1.20;99.90;;;;;;5091296;28;20034;-69
2024/01/13 06:58:31;;;;;;;41.10;19.75;;;-1.20;99.90;;;;;;5091602;28;20024;-68
2024/01/13 07:00:58;;;;;;;40.40;18.73;;;-1.20;99.90;;;;;;5091312;28;20028;-68
2024/01/13 07:03:23;;;;;;;39.13;19.10;;;-1.20;99.90;;;;;;5090847;28;20412;-68
2024/01/13 07:05:49;;;;;;;37.97;18.27;;;-1.20;99.90;;;;;;5090645;28;20035;-68
2024/01/13 07:08:15;;;;;;;39.85;18.98;;;-1.20;99.90;;;;;;5090801;28;21016;-68
2024/01/13 07:10:40;;;;;;;44.58;20.05;;;-1.20;99.90;;;;;;5088385;28;20017;-68
2024/01/13 07:13:06;;;;;;;39.53;18.15;;;-1.20;99.90;;;;;;5090618;28;20088;-69
2024/01/13 07:15:31;;;;;;;43.05;18.73;;;-1.20;99.80;;;;;;5090557;28;20506;-69
2024/01/13 07:17:59;;;;;;;38.10;20.23;;;-1.20;99.90;;;;;;5090767;28;20396;-70
2024/01/13 07:20:26;;;;;;;36.67;18.60;;;-1.20;99.90;;;;;;5090711;28;20023;-69
2024/01/13 07:22:51;;;;;;;41.70;19.30;;;-1.20;99.90;;;;;;5090700;28;20337;-67
2024/01/13 07:25:17;;;;;;;45.78;21.73;;;-1.20;99.90;;;;;;5090406;28;20032;-67
2024/01/13 07:27:43;;;;;;;41.53;20.05;;;-1.20;99.90;;;;;;5091160;28;20522;-71
2024/01/13 07:30:09;;;;;;;40.42;20.63;;;-1.20;99.90;;;;;;5090538;28;20143;-83
2024/01/13 07:32:34;;;;;;;42.60;19.77;;;-1.20;99.90;;;;;;5091761;28;20020;-69
2024/01/13 07:35:00;;;;;;;41.53;19.45;;;-1.10;99.90;;;;;;5094955;28;20038;-67
2024/01/13 07:37:26;;;;;;;44.22;19.73;;;-1.10;99.90;;;;;;5094263;28;20082;-72
2024/01/13 07:39:51;;;;;;;44.10;20.02;;;-1.10;99.90;;;;;;5091865;28;20116;-73
2024/01/13 07:42:17;;;;;;;43.08;19.38;;;-1.10;99.90;;;;;;5094404;28;20024;-77
2024/01/13 07:44:43;;;;;;;41.35;20.98;;;-1.10;99.90;;;;;;5094734;28;20028;-69
2024/01/13 07:47:09;;;;;;;41.72;21.70;;;-1.10;99.90;;;;;;5094210;28;20038;-67
2024/01/13 07:49:35;;;;;;;45.33;21.58;;;-1.10;99.90;;;;;;5094588;28;20054;-67
2024/01/13 07:52:01;;;;;;;49.22;21.40;;;-1.10;99.90;;;;;;5094608;28;20040;-66
2024/01/13 07:54:26;;;;;;;46.90;22.45;;;-1.00;99.90;;;;;;5094111;28;20036;-68
2024/01/13 07:56:52;;;;;;;44.00;21.15;;;-1.00;99.90;;;;;;5094096;28;20027;-71
2024/01/13 07:59:18;;;;;;;48.90;21.75;;;-1.00;99.90;;;;;;5093902;28;20385;-71
2024/01/13 08:01:45;;;;;;;42.92;20.25;;;-1.00;99.90;;;;;;5093238;28;20031;-71
2024/01/13 08:04:12;;;;;;;41.53;20.88;;;-1.00;99.90;;;;;;5093916;28;20030;-72
2024/01/13 08:06:38;;;;;;;50.60;21.27;;;-1.00;99.90;;;;;;5094518;28;20024;-72
2024/01/13 08:09:04;;;;;;;47.45;21.63;;;-1.00;99.90;;;;;;5094350;28;20024;-71
2024/01/13 08:11:30;;;;;;;51.95;22.40;;;-1.00;99.90;;;;;;5094183;28;20030;-71
2024/01/13 08:13:59;;;;;;;49.70;22.20;;;-1.00;99.90;;;;;;5094107;28;20035;-72
2024/01/13 08:16:25;;;;;;;47.38;22.30;;;-1.00;99.90;;;;;;5093845;28;20210;-71
2024/01/13 08:18:50;;;;;;;45.95;21.00;;;-0.90;99.90;;;;;;5094532;28;20090;-71
2024/01/13 08:21:16;;;;;;;43.05;21.65;;;-0.90;99.90;;;;;;5096427;28;20147;-72
2024/01/13 08:23:42;;;;;;;49.20;23.05;;;-0.90;99.90;;;;;;5098817;28;20023;-72
2024/01/13 08:26:08;;;;;;;45.60;21.73;;;-0.90;99.90;;;;;;5105025;28;20456;-73
2024/01/13 08:28:33;;;;;;;49.38;22.83;;;-0.90;99.90;;;;;;5093816;28;20032;-72
2024/01/13 08:31:04;;;;;;;46.38;22.05;;;-0.90;99.80;;;;;;5094268;28;20024;-72
2024/01/13 08:33:29;;;;;;;45.60;22.58;;;-0.90;99.80;;;;;;5093734;28;20503;-71
2024/01/13 08:35:55;;;;;;;48.33;21.58;;;-0.80;99.80;;;;;;5094817;28;20040;-72
2024/01/13 08:38:21;;;;;;;43.28;20.08;;;-0.90;99.70;;;;;;5092917;28;20024;-71
2024/01/13 08:40:47;;;;;;;46.92;21.33;;;-0.80;99.70;;;;;;5093993;28;20030;-71
2024/01/13 08:43:13;;;;;;;52.33;20.85;;;-0.80;99.60;;;;;;5093128;28;20031;-71
2024/01/13 08:45:38;;;;;;;41.13;19.88;;;-0.80;99.60;;;;;;5094334;28;20031;-71
2024/01/13 08:48:05;;;;;;;45.20;20.48;;;-0.80;99.70;;;;;;5093914;28;20096;-71
2024/01/13 08:50:32;;;;;;;43.83;20.40;;;-0.70;99.50;;;;;;5093497;28;20023;-71
2024/01/13 08:52:58;;;;;;;47.47;21.02;;;-0.70;99.20;;;;;;5094403;28;20122;-72
2024/01/13 08:55:27;;;;;;;44.72;20.38;;;-0.70;99.00;;;;;;5093531;28;20162;-71
2024/01/13 08:57:52;;;;;;;51.05;21.83;;;-0.70;99.10;;;;;;5094189;28;20457;-71
2024/01/13 09:00:19;;;;;;;46.53;21.75;;;-0.70;99.10;;;;;;5093175;28;20048;-70
2024/01/13 09:02:44;;;;;;;45.95;21.55;;;-0.70;99.00;;;;;;5093872;28;20020;-71
2024/01/13 09:05:10;;;;;;;43.83;21.40;;;-0.70;99.00;;;;;;5093045;28;20035;-71
2024/01/13 09:07:37;;;;;;;45.78;21.90;;;-0.60;98.90;;;;;;5093360;28;20028;-71
2024/01/13 09:10:04;;;;;;;48.95;21.27;;;-0.60;98.90;;;;;;5093692;28;20464;-71
2024/01/13 09:12:30;;;;;;;46.78;21.88;;;-0.60;98.80;;;;;;5093246;28;20685;-72
2024/01/13 09:14:55;;;;;;;51.90;22.73;;;-0.60;98.90;;;;;;5093657;28;20032;-71
2024/01/13 09:17:21;;;;;;;51.83;22.15;;;-0.60;98.90;;;;;;5098684;28;20028;-71
2024/01/13 09:19:47;;;;;;;49.63;21.77;;;-0.60;98.80;;;;;;5095876;28;20054;-70
2024/01/13 09:22:12;;;;;;;46.95;21.85;;;-0.60;98.60;;;;;;5106586;28;20028;-71
2024/01/13 09:24:40;;;;;;;46.25;21.83;;;-0.50;98.60;;;;;;5103431;28;20060;-72
2024/01/13 09:27:06;;;;;;;51.80;22.70;;;-0.50;98.40;;;;;;5113924;28;20058;-72
2024/01/13 09:29:31;;;;;;;49.03;21.02;;;-0.50;98.60;;;;;;5098199;28;20028;-72
2024/01/13 09:31:57;;;;;;;55.75;22.65;;;-0.50;98.70;;;;;;5105487;28;20054;-71
2024/01/13 09:34:24;;;;;;;52.28;22.33;;;-0.50;98.60;;;;;;5095705;28;20043;-70
2024/01/13 09:36:50;;;;;;;50.38;21.45;;;-0.50;98.60;;;;;;5114000;28;20024;-70
2024/01/13 09:39:16;;;;;;;49.25;22.50;;;-0.50;98.60;;;;;;5113099;28;20031;-70
2024/01/13 09:41:43;;;;;;;52.42;21.50;;;-0.50;98.60;;;;;;5113674;28;20076;-70
2024/01/13 09:44:21;;;;;;;51.38;23.15;;;-0.50;98.70;;;;;;5111990;28;20084;-70
2024/01/13 09:46:49;;;;;;;57.15;22.70;;;-0.50;98.90;;;;;;5113389;28;20062;-70
2024/01/13 09:49:17;;;;;;;57.63;24.50;;;-0.50;98.90;;;;;;5113052;28;20028;-71
2024/01/13 09:51:44;;;;;;;51.97;22.60;;;-0.40;99.00;;;;;;5113297;28;20081;-70
2024/01/13 09:54:14;;;;;;;54.50;23.77;;;-0.40;99.20;;;;;;5113251;28;20062;-70
2024/01/13 09:56:45;;;;;;;57.50;23.88;;;-0.30;99.20;;;;;;5108761;28;20027;-70
2024/01/13 09:59:11;;;;;;;59.70;24.10;;;-0.20;99.20;;;;;;5112775;28;20047;-70
2024/01/13 10:01:38;;;;;;;58.72;24.05;;;-0.10;99.00;;;;;;5110846;28;20127;-71
2024/01/13 10:04:07;;;;;;;59.88;24.20;;;-0.10;98.60;;;;;;5112811;28;20031;-70
2024/01/13 10:06:36;;;;;;;51.08;21.75;;;0.00;98.30;;;;;;5112166;28;20513;-71
2024/01/13 10:09:03;;;;;;;48.13;21.27;;;0.20;98.20;;;;;;5113088;28;20085;-70
2024/01/13 10:11:29;;;;;;;57.15;23.08;;;0.30;97.70;;;;;;5112364;28;20020;-70
2024/01/13 10:14:02;;;;;;;44.30;21.30;;;0.40;97.40;;;;;;5112607;28;20462;-70
2024/01/13 10:16:29;;;;;;;52.75;22.63;;;0.60;97.10;;;;;;5112489;28;20043;-70
2024/01/13 10:18:58;;;;;;;51.58;21.73;;;0.70;96.20;;;;;;5112748;28;20019;-71
2024/01/13 10:21:23;;;;;;;50.13;21.52;;;0.80;95.50;;;;;;5112257;28;20019;-72
2024/01/13 10:23:50;;;;;;;52.53;22.20;;;0.90;95.10;;;;;;5112680;28;20064;-70
2024/01/13 10:26:16;;;;;;;51.58;22.15;;;1.00;94.80;;;;;;5112457;28;20023;-71
2024/01/13 10:28:43;;;;;;;52.95;23.08;;;1.10;95.00;;;;;;5111210;28;20035;-71
2024/01/13 10:31:09;;;;;;;51.05;23.13;;;1.20;94.50;;;;;;5112357;28;20024;-72
2024/01/13 10:33:35;;;;;;;47.42;19.92;;;1.30;94.10;;;;;;5111926;28;20028;-71
2024/01/13 10:36:00;;;;;;;45.83;21.05;;;1.40;93.40;;;;;;5112519;28;20119;-71
2024/01/13 10:38:26;;;;;;;49.83;20.92;;;1.50;93.10;;;;;;5112343;28;20102;-72
2024/01/13 10:40:53;;;;;;;49.65;21.33;;;1.60;92.40;;;;;;5111239;28;20024;-71
2024/01/13 10:43:22;;;;;;;51.72;22.10;;;1.70;92.30;;;;;;5112608;28;20088;-72
2024/01/13 10:45:56;;;;;;;46.97;22.20;;;1.80;92.50;;;;;;5112021;28;20029;-70
2024/01/13 10:48:36;;;;;;;44.10;20.17;;;1.90;91.70;;;;;;5112706;28;20353;-71
2024/01/13 10:51:03;;;;;;;52.50;20.63;;;2.00;91.40;;;;;;5112306;28;20019;-71
2024/01/13 10:53:30;;;;;;;49.03;21.35;;;2.00;90.70;;;;;;5111928;28;20030;-71
2024/01/13 10:55:57;;;;;;;44.92;19.63;;;2.10;90.50;;;;;;5112101;28;20452;-72
2024/01/13 10:58:24;;;;;;;52.70;21.88;;;2.20;90.20;;;;;;5111870;28;20020;-72
2024/01/13 11:00:51;;;;;;;51.65;22.13;;;2.20;90.00;;;;;;5112532;28;20103;-71
2024/01/13 11:03:18;;;;;;;46.15;21.08;;;2.20;89.70;;;;;;5112105;28;20361;-71
2024/01/13 11:05:44;;;;;;;46.40;20.48;;;2.30;89.50;;;;;;5112037;28;20043;-71
2024/01/13 11:08:10;;;;;;;50.55;19.80;;;2.30;89.50;;;;;;5118523;28;20027;-71
2024/01/13 11:10:48;;;;;;;45.30;20.33;;;2.40;88.70;;;;;;5118548;28;20035;-71
2024/01/13 11:13:25;;;;;;;49.78;21.35;;;2.40;88.90;;;;;;5101399;28;20095;-71
2024/01/13 11:16:04;;;;;;;52.90;21.35;;;2.40;88.70;;;;;;5098182;28;20028;-71
2024/01/13 11:18:46;;;;;;;51.08;20.80;;;2.50;87.90;;;;;;5097115;28;20475;-72
2024/01/13 11:21:16;;;;;;;49.92;20.02;;;2.50;87.10;;;;;;5099068;28;20128;-72
2024/01/13 11:24:10;;;;;;;51.58;21.23;;;2.50;86.30;;;;;;5097172;28;20035;-72
2024/01/13 11:26:48;;;;;;;47.30;20.55;;;2.40;86.60;;;;;;5097070;28;20046;-70
2024/01/13 11:29:15;;;;;;;45.17;19.27;;;2.50;87.30;;;;;;5097493;28;20073;-71
2024/01/13 11:31:42;;;;;;;48.17;21.15;;;2.60;87.50;;;;;;5098315;28;20032;-70
2024/01/13 11:34:12;;;;;;;50.47;21.27;;;2.70;86.50;;;;;;5098477;28;20028;-71
2024/01/13 11:36:51;;;;;;;46.33;21.95;;;2.70;86.70;;;;;;5098351;28;20028;-71
2024/01/13 11:39:19;;;;;;;46.50;19.63;;;2.80;86.20;;;;;;5097708;28;20024;-70
2024/01/13 11:41:55;;;;;;;47.03;20.15;;;2.80;85.70;;;;;;5097094;28;20060;-71
2024/01/13 11:44:24;;;;;;;47.33;20.52;;;2.90;84.80;;;;;;5099079;28;20024;-70
2024/01/13 11:47:25;;;;;;;56.30;21.35;;;2.90;84.10;;;;;;5097223;28;20032;-71
2024/01/13 11:49:50;;;;;;;50.35;21.90;;;2.90;84.20;;;;;;5098229;28;20096;-70
2024/01/13 11:52:30;;;;;;;49.38;21.38;;;2.90;84.30;;;;;;5098165;28;20114;-71
2024/01/13 11:54:57;;;;;;;48.50;20.58;;;2.90;84.00;;;;;;5098562;28;20024;-72
2024/01/13 11:57:22;;;;;;;51.20;21.92;;;2.90;83.80;;;;;;5097824;28;20035;-71
2024/01/13 11:59:49;;;;;;;51.33;21.88;;;2.90;83.50;;;;;;5099599;28;20055;-71
2024/01/13 12:02:15;;;;;;;53.00;22.95;;;2.90;83.80;;;;;;5116167;28;20028;-71
2024/01/13 12:04:42;;;;;;;50.35;22.45;;;2.90;83.90;;;;;;5117346;28;20168;-71
2024/01/13 12:07:10;;;;;;;56.50;23.42;;;2.90;83.80;;;;;;5118933;28;20027;-72
2024/01/13 12:09:37;;;;;;;51.72;22.23;;;3.00;84.50;;;;;;5117847;28;20035;-70
2024/01/13 12:12:05;;;;;;;51.35;21.75;;;3.00;84.10;;;;;;5118566;28;20168;-70
2024/01/13 12:14:35;;;;;;;50.20;22.45;;;3.10;84.00;;;;;;5118027;28;20039;-70
2024/01/13 12:17:03;;;;;;;53.67;22.70;;;3.10;83.10;;;;;;5118465;28;20023;-70
2024/01/13 12:19:32;;;;;;;55.33;23.23;;;3.10;82.60;;;;;;5114534;28;20050;-70
2024/01/13 12:21:58;;;;;;;49.80;22.20;;;3.20;82.50;;;;;;5114975;28;20110;-71
2024/01/13 12:24:28;;;;;;;53.08;23.10;;;3.20;82.80;;;;;;5113261;28;20133;-72
2024/01/13 12:26:54;;;;;;;52.30;22.17;;;3.20;82.20;;;;;;5115486;28;20119;-71